sensor_id;sensor_type;location;lat;lon;timestamp;temperature;humidity
57410;DHT22;46044;44.738;20.394;2022-08-21T12:04:02;22.00;95.00
57410;DHT22;46044;44.738;20.394;2022-08-21T12:06:37;22.00;95.00
57410;DHT22;46044;44.738;20.394;2022-08-21T12:09:31;23.00;95.00
57410;DHT22;46044;44.738;20.394;2022-08-21T12:12:32;23.00;95.00
57410;DHT22;46044;44.738;20.394;2022-08-21T12:15:26;23.00;95.00
57410;DHT22;46044;44.738;20.394;2022-08-21T12:28:29;23.00;94.00
57410;DHT22;46044;44.738;20.394;2022-08-21T12:30:57;23.00;95.00
57410;DHT22;46044;44.738;20.394;2022-08-21T12:33:37;23.00;95.00
57410;DHT22;46044;44.738;20.394;2022-08-21T12:36:11;24.00;94.00
57410;DHT22;46044;44.738;20.394;2022-08-21T12:38:58;24.00;91.00
57410;DHT22;46044;44.738;20.394;2022-08-21T12:41:32;24.00;90.00
57410;DHT22;46044;44.738;20.394;2022-08-21T12:44:07;24.00;89.00
57410;DHT22;46044;44.738;20.394;2022-08-21T12:47:06;24.00;88.00
57410;DHT22;46044;44.738;20.394;2022-08-21T12:49:53;24.00;90.00
57410;DHT22;46044;44.738;20.394;2022-08-21T12:52:35;23.00;90.00
57410;DHT22;46044;44.738;20.394;2022-08-21T12:55:03;23.00;91.00
57410;DHT22;46044;44.738;20.394;2022-08-21T12:57:30;23.00;93.00
57410;DHT22;46044;44.738;20.394;2022-08-21T13:00:03;22.00;94.00
57410;DHT22;46044;44.738;20.394;2022-08-21T13:02:33;22.00;95.00
57410;DHT22;46044;44.738;20.394;2022-08-21T13:05:27;22.00;95.00
57410;DHT22;46044;44.738;20.394;2022-08-21T13:07:55;22.00;95.00
57410;DHT22;46044;44.738;20.394;2022-08-21T13:10:31;22.00;95.00
57410;DHT22;46044;44.738;20.394;2022-08-21T13:13:05;22.00;95.00
57410;DHT22;46044;44.738;20.394;2022-08-21T13:15:35;22.00;95.00
57410;DHT22;46044;44.738;20.394;2022-08-21T13:18:05;22.00;95.00
57410;DHT22;46044;44.738;20.394;2022-08-21T13:20:34;22.00;95.00
57410;DHT22;46044;44.738;20.394;2022-08-21T13:23:03;22.00;95.00
57410;DHT22;46044;44.738;20.394;2022-08-21T13:25:35;22.00;95.00
57410;DHT22;46044;44.738;20.394;2022-08-21T13:28:08;22.00;95.00
57410;DHT22;46044;44.738;20.394;2022-08-21T13:30:39;22.00;95.00
57410;DHT22;46044;44.738;20.394;2022-08-21T13:33:10;23.00;95.00
57410;DHT22;46044;44.738;20.394;2022-08-21T13:45:37;23.00;92.00
57410;DHT22;46044;44.738;20.394;2022-08-21T13:48:05;23.00;91.00
57410;DHT22;46044;44.738;20.394;2022-08-21T13:50:40;23.00;89.00
57410;DHT22;46044;44.738;20.394;2022-08-21T13:56:10;23.00;90.00
57410;DHT22;46044;44.738;20.394;2022-08-21T13:58:58;23.00;90.00
57410;DHT22;46044;44.738;20.394;2022-08-21T14:01:34;23.00;91.00
57410;DHT22;46044;44.738;20.394;2022-08-21T14:04:07;23.00;90.00
57410;DHT22;46044;44.738;20.394;2022-08-21T14:06:38;23.00;90.00
57410;DHT22;46044;44.738;20.394;2022-08-21T14:09:13;23.00;90.00
57410;DHT22;46044;44.738;20.394;2022-08-21T14:11:41;23.00;90.00
57410;DHT22;46044;44.738;20.394;2022-08-21T14:14:32;23.00;90.00
57410;DHT22;46044;44.738;20.394;2022-08-21T14:17:05;23.00;90.00
57410;DHT22;46044;44.738;20.394;2022-08-21T14:24:59;23.00;91.00
57410;DHT22;46044;44.738;20.394;2022-08-21T14:27:29;23.00;92.00
57410;DHT22;46044;44.738;20.394;2022-08-21T14:30:21;23.00;91.00
57410;DHT22;46044;44.738;20.394;2022-08-21T14:32:50;23.00;90.00
57410;DHT22;46044;44.738;20.394;2022-08-21T14:35:16;23.00;90.00
57410;DHT22;46044;44.738;20.394;2022-08-21T14:37:44;23.00;90.00
57410;DHT22;46044;44.738;20.394;2022-08-21T14:40:12;23.00;89.00
57410;DHT22;46044;44.738;20.394;2022-08-21T14:42:43;23.00;89.00
57410;DHT22;46044;44.738;20.394;2022-08-21T14:47:46;23.00;89.00
57410;DHT22;46044;44.738;20.394;2022-08-21T14:50:13;23.00;89.00
57410;DHT22;46044;44.738;20.394;2022-08-21T14:52:40;23.00;89.00
57410;DHT22;46044;44.738;20.394;2022-08-21T14:55:09;23.00;89.00
57410;DHT22;46044;44.738;20.394;2022-08-21T14:57:40;23.00;89.00
57410;DHT22;46044;44.738;20.394;2022-08-21T15:00:14;23.00;88.00
57410;DHT22;46044;44.738;20.394;2022-08-21T15:02:40;23.00;88.00
57410;DHT22;46044;44.738;20.394;2022-08-21T15:05:12;23.00;88.00
57410;DHT22;46044;44.738;20.394;2022-08-21T15:07:39;23.00;88.00
57410;DHT22;46044;44.738;20.394;2022-08-21T15:10:13;23.00;88.00
57410;DHT22;46044;44.738;20.394;2022-08-21T15:12:40;23.00;89.00
57410;DHT22;46044;44.738;20.394;2022-08-21T15:15:07;23.00;89.00
57410;DHT22;46044;44.738;20.394;2022-08-21T15:17:34;23.00;89.00
57410;DHT22;46044;44.738;20.394;2022-08-21T15:20:01;23.00;89.00
57410;DHT22;46044;44.738;20.394;2022-08-21T15:22:27;23.00;89.00
57410;DHT22;46044;44.738;20.394;2022-08-21T15:24:59;23.00;89.00
57410;DHT22;46044;44.738;20.394;2022-08-21T15:27:26;23.00;89.00
57410;DHT22;46044;44.738;20.394;2022-08-21T15:29:54;23.00;90.00
57410;DHT22;46044;44.738;20.394;2022-08-21T15:32:23;23.00;89.00
57410;DHT22;46044;44.738;20.394;2022-08-21T15:34:51;23.00;90.00
57410;DHT22;46044;44.738;20.394;2022-08-21T15:37:17;23.00;90.00
57410;DHT22;46044;44.738;20.394;2022-08-21T15:39:45;23.00;90.00
57410;DHT22;46044;44.738;20.394;2022-08-21T15:42:12;23.00;90.00
57410;DHT22;46044;44.738;20.394;2022-08-21T15:44:42;23.00;90.00
57410;DHT22;46044;44.738;20.394;2022-08-21T15:47:20;23.00;90.00
57410;DHT22;46044;44.738;20.394;2022-08-21T15:49:46;23.00;90.00
57410;DHT22;46044;44.738;20.394;2022-08-21T15:52:14;23.00;91.00
57410;DHT22;46044;44.738;20.394;2022-08-21T15:54:42;23.00;91.00
57410;DHT22;46044;44.738;20.394;2022-08-21T15:57:10;23.00;91.00
57410;DHT22;46044;44.738;20.394;2022-08-21T15:59:44;23.00;91.00
57410;DHT22;46044;44.738;20.394;2022-08-21T16:02:15;23.00;91.00
57410;DHT22;46044;44.738;20.394;2022-08-21T16:04:41;23.00;91.00
57410;DHT22;46044;44.738;20.394;2022-08-21T16:07:11;23.00;91.00
57410;DHT22;46044;44.738;20.394;2022-08-21T16:09:37;23.00;91.00
57410;DHT22;46044;44.738;20.394;2022-08-21T16:12:05;23.00;91.00
57410;DHT22;46044;44.738;20.394;2022-08-21T16:14:35;22.00;91.00
57410;DHT22;46044;44.738;20.394;2022-08-21T16:17:05;23.00;91.00
57410;DHT22;46044;44.738;20.394;2022-08-21T16:19:31;22.00;92.00
57410;DHT22;46044;44.738;20.394;2022-08-21T16:21:58;22.00;92.00
57410;DHT22;46044;44.738;20.394;2022-08-21T16:24:24;22.00;93.00
57410;DHT22;46044;44.738;20.394;2022-08-21T16:26:50;22.00;93.00
57410;DHT22;46044;44.738;20.394;2022-08-21T16:29:19;22.00;94.00
57410;DHT22;46044;44.738;20.394;2022-08-21T16:31:46;22.00;94.00
57410;DHT22;46044;44.738;20.394;2022-08-21T16:34:17;22.00;94.00
57410;DHT22;46044;44.738;20.394;2022-08-21T16:36:43;22.00;94.00
57410;DHT22;46044;44.738;20.394;2022-08-21T16:39:10;22.00;94.00
57410;DHT22;46044;44.738;20.394;2022-08-21T16:42:01;22.00;94.00
57410;DHT22;46044;44.738;20.394;2022-08-21T16:44:27;22.00;94.00
57410;DHT22;46044;44.738;20.394;2022-08-21T16:46:55;22.00;94.00
57410;DHT22;46044;44.738;20.394;2022-08-21T16:49:21;22.00;95.00
57410;DHT22;46044;44.738;20.394;2022-08-21T16:51:47;22.00;95.00
57410;DHT22;46044;44.738;20.394;2022-08-21T16:54:13;22.00;94.00
57410;DHT22;46044;44.738;20.394;2022-08-21T16:56:39;22.00;94.00
57410;DHT22;46044;44.738;20.394;2022-08-21T16:59:05;22.00;94.00
57410;DHT22;46044;44.738;20.394;2022-08-21T17:01:33;22.00;94.00
57410;DHT22;46044;44.738;20.394;2022-08-21T17:04:00;22.00;94.00
57410;DHT22;46044;44.738;20.394;2022-08-21T17:06:26;22.00;94.00
57410;DHT22;46044;44.738;20.394;2022-08-21T17:08:57;22.00;94.00
57410;DHT22;46044;44.738;20.394;2022-08-21T17:13:52;22.00;95.00
57410;DHT22;46044;44.738;20.394;2022-08-21T17:16:18;22.00;95.00
57410;DHT22;46044;44.738;20.394;2022-08-21T17:18:45;22.00;95.00
57410;DHT22;46044;44.738;20.394;2022-08-21T17:21:14;22.00;95.00
57410;DHT22;46044;44.738;20.394;2022-08-21T17:23:40;22.00;95.00
57410;DHT22;46044;44.738;20.394;2022-08-21T17:26:06;22.00;95.00
57410;DHT22;46044;44.738;20.394;2022-08-21T17:28:34;22.00;95.00
57410;DHT22;46044;44.738;20.394;2022-08-21T17:31:02;22.00;95.00
57410;DHT22;46044;44.738;20.394;2022-08-21T17:33:36;22.00;95.00
57410;DHT22;46044;44.738;20.394;2022-08-21T17:36:05;22.00;95.00
57410;DHT22;46044;44.738;20.394;2022-08-21T17:38:32;22.00;95.00
57410;DHT22;46044;44.738;20.394;2022-08-21T17:41:00;22.00;95.00
57410;DHT22;46044;44.738;20.394;2022-08-21T17:43:26;22.00;95.00
57410;DHT22;46044;44.738;20.394;2022-08-21T17:45:53;22.00;95.00
57410;DHT22;46044;44.738;20.394;2022-08-21T17:48:19;22.00;95.00
57410;DHT22;46044;44.738;20.394;2022-08-21T17:50:46;22.00;95.00
57410;DHT22;46044;44.738;20.394;2022-08-21T17:53:12;22.00;95.00
57410;DHT22;46044;44.738;20.394;2022-08-21T17:55:38;22.00;95.00
57410;DHT22;46044;44.738;20.394;2022-08-21T17:58:08;22.00;95.00
57410;DHT22;46044;44.738;20.394;2022-08-21T18:00:35;22.00;95.00
57410;DHT22;46044;44.738;20.394;2022-08-21T18:03:06;22.00;95.00
57410;DHT22;46044;44.738;20.394;2022-08-21T18:05:43;22.00;95.00
57410;DHT22;46044;44.738;20.394;2022-08-21T18:08:10;22.00;95.00
57410;DHT22;46044;44.738;20.394;2022-08-21T18:10:38;22.00;95.00
57410;DHT22;46044;44.738;20.394;2022-08-21T18:13:07;22.00;95.00
57410;DHT22;46044;44.738;20.394;2022-08-21T18:15:35;22.00;95.00
57410;DHT22;46044;44.738;20.394;2022-08-21T18:18:02;22.00;95.00
57410;DHT22;46044;44.738;20.394;2022-08-21T18:20:30;22.00;95.00
57410;DHT22;46044;44.738;20.394;2022-08-21T18:22:56;22.00;95.00
57410;DHT22;46044;44.738;20.394;2022-08-21T18:25:22;22.00;95.00
57410;DHT22;46044;44.738;20.394;2022-08-21T18:27:49;22.00;95.00
57410;DHT22;46044;44.738;20.394;2022-08-21T18:30:18;22.00;95.00
57410;DHT22;46044;44.738;20.394;2022-08-21T18:32:44;22.00;95.00
57410;DHT22;46044;44.738;20.394;2022-08-21T18:35:11;22.00;95.00
57410;DHT22;46044;44.738;20.394;2022-08-21T18:37:37;22.00;95.00
57410;DHT22;46044;44.738;20.394;2022-08-21T18:40:05;22.00;95.00
57410;DHT22;46044;44.738;20.394;2022-08-21T18:42:40;22.00;95.00
57410;DHT22;46044;44.738;20.394;2022-08-21T18:45:10;22.00;95.00
57410;DHT22;46044;44.738;20.394;2022-08-21T18:47:49;22.00;95.00
57410;DHT22;46044;44.738;20.394;2022-08-21T18:50:18;22.00;95.00
57410;DHT22;46044;44.738;20.394;2022-08-21T18:52:44;22.00;95.00
57410;DHT22;46044;44.738;20.394;2022-08-21T18:55:12;22.00;95.00
57410;DHT22;46044;44.738;20.394;2022-08-21T18:57:39;22.00;95.00
57410;DHT22;46044;44.738;20.394;2022-08-21T19:00:13;22.00;95.00
57410;DHT22;46044;44.738;20.394;2022-08-21T19:02:40;22.00;95.00
57410;DHT22;46044;44.738;20.394;2022-08-21T19:05:08;22.00;95.00
57410;DHT22;46044;44.738;20.394;2022-08-21T19:07:36;22.00;95.00
57410;DHT22;46044;44.738;20.394;2022-08-21T19:10:05;22.00;95.00
57410;DHT22;46044;44.738;20.394;2022-08-21T19:12:32;22.00;95.00
57410;DHT22;46044;44.738;20.394;2022-08-21T19:14:59;22.00;95.00
57410;DHT22;46044;44.738;20.394;2022-08-21T19:17:26;22.00;95.00
57410;DHT22;46044;44.738;20.394;2022-08-21T19:19:55;22.00;95.00
57410;DHT22;46044;44.738;20.394;2022-08-21T19:22:23;22.00;95.00
57410;DHT22;46044;44.738;20.394;2022-08-21T19:24:49;22.00;95.00
57410;DHT22;46044;44.738;20.394;2022-08-21T19:27:15;22.00;95.00
57410;DHT22;46044;44.738;20.394;2022-08-21T19:29:41;22.00;95.00
57410;DHT22;46044;44.738;20.394;2022-08-21T19:32:07;22.00;95.00
57410;DHT22;46044;44.738;20.394;2022-08-21T19:34:35;22.00;95.00
57410;DHT22;46044;44.738;20.394;2022-08-21T19:37:02;22.00;95.00
57410;DHT22;46044;44.738;20.394;2022-08-21T19:39:28;22.00;95.00
57410;DHT22;46044;44.738;20.394;2022-08-21T19:41:57;22.00;95.00
57410;DHT22;46044;44.738;20.394;2022-08-21T19:44:26;22.00;95.00
57410;DHT22;46044;44.738;20.394;2022-08-21T19:46:54;22.00;95.00
57410;DHT22;46044;44.738;20.394;2022-08-21T19:49:27;22.00;95.00
57410;DHT22;46044;44.738;20.394;2022-08-21T19:51:54;22.00;95.00
57410;DHT22;46044;44.738;20.394;2022-08-21T19:54:29;22.00;95.00
57410;DHT22;46044;44.738;20.394;2022-08-21T19:56:57;22.00;95.00
57410;DHT22;46044;44.738;20.394;2022-08-21T19:59:24;22.00;95.00
57410;DHT22;46044;44.738;20.394;2022-08-21T20:01:53;22.00;95.00
57410;DHT22;46044;44.738;20.394;2022-08-21T20:04:19;22.00;95.00
57410;DHT22;46044;44.738;20.394;2022-08-21T20:06:46;22.00;95.00
57410;DHT22;46044;44.738;20.394;2022-08-21T20:09:13;22.00;95.00
57410;DHT22;46044;44.738;20.394;2022-08-21T20:11:46;22.00;95.00
57410;DHT22;46044;44.738;20.394;2022-08-21T20:14:15;22.00;95.00
57410;DHT22;46044;44.738;20.394;2022-08-21T20:16:42;22.00;95.00
57410;DHT22;46044;44.738;20.394;2022-08-21T20:19:09;22.00;95.00
57410;DHT22;46044;44.738;20.394;2022-08-21T20:21:36;22.00;95.00
57410;DHT22;46044;44.738;20.394;2022-08-21T20:24:03;22.00;95.00
57410;DHT22;46044;44.738;20.394;2022-08-21T20:26:29;22.00;95.00
57410;DHT22;46044;44.738;20.394;2022-08-21T20:28:57;22.00;95.00
57410;DHT22;46044;44.738;20.394;2022-08-21T20:31:29;21.00;94.00
57410;DHT22;46044;44.738;20.394;2022-08-21T20:33:55;21.00;94.00
57410;DHT22;46044;44.738;20.394;2022-08-21T20:36:21;21.00;94.00
57410;DHT22;46044;44.738;20.394;2022-08-21T20:38:55;21.00;94.00
57410;DHT22;46044;44.738;20.394;2022-08-21T20:41:22;21.00;94.00
57410;DHT22;46044;44.738;20.394;2022-08-21T20:43:49;21.00;94.00
57410;DHT22;46044;44.738;20.394;2022-08-21T20:46:22;21.00;94.00
57410;DHT22;46044;44.738;20.394;2022-08-21T20:48:49;21.00;94.00
57410;DHT22;46044;44.738;20.394;2022-08-21T20:51:39;21.00;94.00
57410;DHT22;46044;44.738;20.394;2022-08-21T20:59:57;21.00;94.00
57410;DHT22;46044;44.738;20.394;2022-08-21T21:03:13;21.00;94.00
57410;DHT22;46044;44.738;20.394;2022-08-21T21:05:46;21.00;94.00
57410;DHT22;46044;44.738;20.394;2022-08-21T21:13:53;21.00;94.00
57410;DHT22;46044;44.738;20.394;2022-08-21T21:22:49;21.00;94.00
57410;DHT22;46044;44.738;20.394;2022-08-21T21:25:33;21.00;94.00
57410;DHT22;46044;44.738;20.394;2022-08-21T21:28:18;21.00;94.00
57410;DHT22;46044;44.738;20.394;2022-08-21T21:30:46;21.00;94.00
57410;DHT22;46044;44.738;20.394;2022-08-21T21:33:14;21.00;94.00
57410;DHT22;46044;44.738;20.394;2022-08-21T21:36:05;21.00;94.00
57410;DHT22;46044;44.738;20.394;2022-08-21T21:38:46;21.00;94.00
57410;DHT22;46044;44.738;20.394;2022-08-21T21:52:03;21.00;94.00
57410;DHT22;46044;44.738;20.394;2022-08-21T22:00:22;21.00;94.00
57410;DHT22;46044;44.738;20.394;2022-08-21T22:06:01;21.00;94.00
57410;DHT22;46044;44.738;20.394;2022-08-21T22:14:18;21.00;94.00
57410;DHT22;46044;44.738;20.394;2022-08-21T22:16:46;21.00;94.00
57410;DHT22;46044;44.738;20.394;2022-08-21T22:19:23;21.00;94.00
57410;DHT22;46044;44.738;20.394;2022-08-21T22:21:55;21.00;94.00
57410;DHT22;46044;44.738;20.394;2022-08-21T22:24:28;21.00;94.00
57410;DHT22;46044;44.738;20.394;2022-08-21T22:27:07;21.00;94.00
57410;DHT22;46044;44.738;20.394;2022-08-21T22:29:55;21.00;94.00
57410;DHT22;46044;44.738;20.394;2022-08-21T22:32:39;21.00;94.00
57410;DHT22;46044;44.738;20.394;2022-08-21T22:35:18;21.00;94.00
57410;DHT22;46044;44.738;20.394;2022-08-21T22:37:51;21.00;94.00
57410;DHT22;46044;44.738;20.394;2022-08-21T22:40:32;21.00;94.00
57410;DHT22;46044;44.738;20.394;2022-08-21T22:43:18;21.00;94.00
57410;DHT22;46044;44.738;20.394;2022-08-21T22:46:03;21.00;94.00
57410;DHT22;46044;44.738;20.394;2022-08-21T22:48:34;21.00;94.00
57410;DHT22;46044;44.738;20.394;2022-08-21T22:53:29;21.00;94.00
57410;DHT22;46044;44.738;20.394;2022-08-21T22:55:58;21.00;94.00
57410;DHT22;46044;44.738;20.394;2022-08-21T22:58:52;21.00;94.00
57410;DHT22;46044;44.738;20.394;2022-08-21T23:06:40;21.00;94.00
57410;DHT22;46044;44.738;20.394;2022-08-21T23:09:18;21.00;94.00
57410;DHT22;46044;44.738;20.394;2022-08-21T23:11:45;21.00;94.00
57410;DHT22;46044;44.738;20.394;2022-08-21T23:14:12;21.00;94.00
57410;DHT22;46044;44.738;20.394;2022-08-21T23:36:25;21.00;94.00
57410;DHT22;46044;44.738;20.394;2022-08-21T23:39:19;21.00;94.00
57410;DHT22;46044;44.738;20.394;2022-08-21T23:50:22;21.00;94.00
57410;DHT22;46044;44.738;20.394;2022-08-21T23:55:51;21.00;94.00
57410;DHT22;46044;44.738;20.394;2022-08-21T23:58:39;21.00;94.00
